Fruit Valley, New York
Current Conditions -  °F | °C
As of 9:54 AM on Saturday 22 Nov 2014 (Local Time) from KFZY Reporting Station
Few Clouds Few Clouds  
Wind Chill: 20°   Ceiling: Unl
Heat Index: 31°   Visibility: 10mi
Dew Point: 10°   Wind: 15mph
Humidity: 42%   Direction: 180°S
Pressure: 30.21"   Gusts: NA
Location:  43.4571°N, 76.4163°W
Report Text: KFZY 221454Z AUTO 18013KT 10SM FEW049 M01/M12 A3021 RMK AO2 SLP238 T10061122 58024
Loading
Personal Weather Stations






























Interactive Weather Map New forecast layout! Learn more

10-Day Weather Forecast

Advertisements
Track Severe Weather on mobile